Time;durP1;ratioP1;P1;durP2;ratioP2;P2;SDS_P1;SDS_P2;PMS_P1;PMS_P2;Temp;Humidity;BMP_temperature;BMP_pressure;BME280_temperature;BME280_humidity;BME280_pressure;Samples;Min_cycle;Max_cycle;Signal;HPM_P1;HPM_P2
2022/12/07 00:00:19;;;;;;;10.97;9.00;;;;;;;9.50;58.29;98817.91;6984456;28;20272;-82
2022/12/07 00:03:43;;;;;;;10.90;9.73;;;;;;;9.42;58.93;98820.78;6984552;28;20209;-82
2022/12/07 00:07:06;;;;;;;16.50;9.80;;;;;;;9.45;58.96;98836.50;6983585;28;20228;-81
2022/12/07 00:10:28;;;;;;;12.30;9.23;;;;;;;9.45;58.81;98823.06;6983184;28;20213;-81
2022/12/07 00:13:52;;;;;;;14.27;10.53;;;;;;;9.24;59.16;98822.28;6984037;28;20225;-82
2022/12/07 00:17:14;;;;;;;10.43;9.33;;;;;;;9.43;59.01;98810.81;6982540;28;20216;-81
2022/12/07 00:20:36;;;;;;;12.37;9.10;;;;;;;9.38;59.18;98842.88;6983925;28;20209;-81
2022/12/07 00:23:59;;;;;;;9.87;8.87;;;;;;;9.25;59.17;98805.97;6983690;28;20212;-81
2022/12/07 00:27:21;;;;;;;10.67;8.67;;;;;;;8.96;59.62;98810.69;6982881;28;20224;-82
2022/12/07 00:30:42;;;;;;;10.80;8.30;;;;;;;8.70;59.87;98785.44;6984526;28;20219;-81
2022/12/07 00:34:04;;;;;;;11.27;9.40;;;;;;;9.14;60.12;98805.66;6984076;28;20234;-82
2022/12/07 00:37:25;;;;;;;10.23;8.87;;;;;;;9.38;59.17;98814.09;6986554;28;20236;-82
2022/12/07 00:40:57;;;;;;;10.37;8.43;;;;;;;9.57;58.27;98808.00;6983630;28;20580;-82
2022/12/07 00:44:18;;;;;;;11.50;8.90;;;;;;;9.39;58.89;98828.41;6984132;28;20215;-82
2022/12/07 00:47:40;;;;;;;11.83;9.13;;;;;;;9.34;58.84;98822.78;6982851;28;20256;-81
2022/12/07 00:51:02;;;;;;;16.67;11.87;;;;;;;9.27;59.12;98824.59;6984138;28;20219;-82
2022/12/07 00:54:23;;;;;;;13.67;9.07;;;;;;;9.10;59.62;98793.66;6983826;28;20633;-81
2022/12/07 00:57:46;;;;;;;11.67;9.40;;;;;;;9.46;58.82;98813.13;6983386;28;20748;-82
2022/12/07 01:01:10;;;;;;;13.10;8.83;;;;;;;9.45;58.77;98831.13;6984247;28;20211;-81
2022/12/07 01:04:34;;;;;;;10.17;8.77;;;;;;;9.13;59.24;98820.13;6984562;28;20651;-81
2022/12/07 01:07:56;;;;;;;10.73;9.37;;;;;;;9.37;58.73;98817.00;6983849;28;20225;-81
2022/12/07 01:11:20;;;;;;;10.00;8.43;;;;;;;9.42;58.48;98834.22;6983911;28;20213;-82
2022/12/07 01:14:43;;;;;;;10.37;9.23;;;;;;;9.53;58.87;98825.59;6979452;28;20228;-81
2022/12/07 01:18:05;;;;;;;10.93;9.83;;;;;;;9.66;58.14;98831.06;6980641;28;20232;-81
2022/12/07 01:21:28;;;;;;;10.10;8.97;;;;;;;9.52;58.20;98826.59;6986049;28;20206;-81
2022/12/07 01:24:50;;;;;;;10.20;9.10;;;;;;;9.06;58.68;98800.44;6989242;28;20214;-81
2022/12/07 01:28:12;;;;;;;13.57;9.90;;;;;;;9.35;58.69;98845.97;6989255;28;20233;-82
2022/12/07 01:31:35;;;;;;;11.90;9.33;;;;;;;9.27;58.65;98832.66;6989181;28;20209;-81
2022/12/07 01:34:56;;;;;;;10.47;8.83;;;;;;;8.89;58.37;98739.91;6991919;28;20220;-81
2022/12/07 01:38:18;;;;;;;10.10;8.67;;;;;;;9.28;58.53;98835.16;6989225;28;20611;-81
2022/12/07 01:41:43;;;;;;;11.57;9.43;;;;;;;8.85;59.49;98827.34;6988457;28;20215;-81
2022/12/07 01:45:40;;;;;;;12.10;9.67;;;;;;;9.14;58.95;98848.69;6987911;28;20789;-82
2022/12/07 01:49:04;;;;;;;11.30;9.37;;;;;;;9.40;58.44;98852.41;6946213;28;20226;-82
2022/12/07 01:52:28;;;;;;;12.30;9.50;;;;;;;9.40;58.57;98856.97;6988632;28;20631;-81
2022/12/07 01:55:53;;;;;;;10.83;9.33;;;;;;;9.25;58.57;98823.94;6988053;28;20256;-81
2022/12/07 01:59:14;;;;;;;12.27;9.93;;;;;;;9.01;58.42;98756.34;6988368;28;20237;-82
2022/12/07 02:02:39;;;;;;;10.57;8.93;;;;;;;9.53;57.90;98844.44;6988055;28;20206;-82
2022/12/07 02:06:02;;;;;;;11.53;9.13;;;;;;;9.42;58.44;98838.75;6987373;28;20218;-81
2022/12/07 02:09:24;;;;;;;11.30;9.20;;;;;;;9.17;59.20;98853.69;6987585;28;20235;-82
2022/12/07 02:12:47;;;;;;;14.83;11.03;;;;;;;8.69;60.31;98832.16;6987880;28;20239;-82
2022/12/07 02:16:20;;;;;;;13.87;10.53;;;;;;;9.03;59.31;98809.72;6986414;28;20267;-81
2022/12/07 02:20:12;;;;;;;13.93;10.83;;;;;;;9.45;59.13;98844.56;6986387;28;20224;-80
2022/12/07 02:24:02;;;;;;;12.90;9.93;;;;;;;9.12;59.04;98840.00;6981525;28;20721;-83
2022/12/07 02:27:39;;;;;;;12.17;10.10;;;;;;;9.15;59.16;98845.81;6981223;28;20713;-83
2022/12/07 02:31:06;;;;;;;15.80;10.40;;;;;;;9.07;59.48;98847.81;6981250;28;20272;-83
2022/12/07 02:34:33;;;;;;;12.33;9.93;;;;;;;9.19;58.91;98839.03;6980738;28;20244;-83
2022/12/07 02:38:00;;;;;;;13.07;10.33;;;;;;;9.22;58.67;98818.97;6980754;28;20266;-83
2022/12/07 02:41:25;;;;;;;12.40;11.10;;;;;;;9.27;58.98;98822.72;6980196;28;20680;-83
2022/12/07 02:44:47;;;;;;;12.97;11.33;;;;;;;8.99;59.19;98810.31;6980797;28;20276;-83
2022/12/07 02:48:11;;;;;;;14.90;10.27;;;;;;;9.21;58.75;98823.50;6980474;28;20260;-83
2022/12/07 02:51:33;;;;;;;14.63;11.07;;;;;;;9.33;58.67;98821.94;6980884;28;20294;-83
2022/12/07 02:54:54;;;;;;;15.10;11.00;;;;;;;9.21;58.72;98825.38;6980434;28;20713;-83
2022/12/07 02:58:24;;;;;;;12.80;10.47;;;;;;;9.31;58.35;98817.78;6980797;28;20258;-83
2022/12/07 03:01:52;;;;;;;12.07;10.00;;;;;;;9.21;57.94;98811.94;6980732;28;20224;-83
2022/12/07 03:05:28;;;;;;;14.07;11.30;;;;;;;8.83;58.83;98770.25;6980507;28;20273;-83
2022/12/07 03:08:58;;;;;;;13.77;11.57;;;;;;;8.97;58.75;98796.25;6980674;28;20254;-83
2022/12/07 03:12:22;;;;;;;14.40;10.87;;;;;;;9.33;58.10;98823.81;6980242;28;20210;-85
2022/12/07 03:15:48;;;;;;;14.70;11.87;;;;;;;9.07;58.74;98814.72;6980143;28;20308;-83
2022/12/07 03:19:12;;;;;;;15.57;11.53;;;;;;;9.13;58.80;98806.69;6980231;28;20248;-83
2022/12/07 03:22:36;;;;;;;13.00;11.03;;;;;;;8.84;59.38;98801.50;6980075;28;20699;-83
2022/12/07 03:26:00;;;;;;;15.37;11.23;;;;;;;8.93;59.52;98811.91;6979784;28;20707;-83
2022/12/07 03:29:25;;;;;;;15.57;11.10;;;;;;;8.93;58.88;98815.63;6979483;28;20730;-83
2022/12/07 03:32:49;;;;;;;12.40;9.80;;;;;;;8.99;58.87;98819.19;6980314;28;20203;-83
2022/12/07 03:36:15;;;;;;;14.13;11.13;;;;;;;8.98;58.93;98813.19;6986794;28;20254;-83
2022/12/07 03:39:41;;;;;;;12.70;10.77;;;;;;;8.95;58.58;98813.59;7005459;28;20263;-83
2022/12/07 03:43:03;;;;;;;14.57;10.93;;;;;;;8.88;58.38;98788.50;7007481;28;20191;-84
2022/12/07 03:46:30;;;;;;;15.57;10.40;;;;;;;9.30;57.29;98800.81;7006710;28;20245;-83
2022/12/07 03:49:54;;;;;;;14.00;11.37;;;;;;;8.75;58.34;98794.59;7006993;28;20224;-83
2022/12/07 03:53:19;;;;;;;15.73;11.73;;;;;;;8.42;59.18;98803.38;7012125;28;20204;-82
2022/12/07 03:56:43;;;;;;;13.97;10.57;;;;;;;9.04;58.13;98808.69;7010113;28;20282;-82
2022/12/07 04:00:06;;;;;;;15.13;10.83;;;;;;;9.11;58.15;98795.31;7009419;28;20228;-82
2022/12/07 04:03:27;;;;;;;14.70;10.50;;;;;;;9.08;57.95;98806.44;7009362;28;20219;-81
2022/12/07 04:06:49;;;;;;;13.47;9.83;;;;;;;9.07;57.23;98801.28;7006985;28;20262;-81
2022/12/07 04:10:11;;;;;;;14.03;10.40;;;;;;;8.18;59.13;98801.00;7005610;28;20300;-81
2022/12/07 04:14:18;;;;;;;14.83;10.43;;;;;;;8.49;59.31;98797.03;7004864;28;20223;-81
2022/12/07 04:17:16;;;;;;;14.47;11.00;;;;;;;8.60;59.32;98787.66;7004146;28;20216;-81
2022/12/07 04:20:38;;;;;;;15.23;11.17;;;;;;;8.84;58.37;98792.59;7005245;28;20235;-82
2022/12/07 04:23:59;;;;;;;13.97;11.13;;;;;;;8.55;58.73;98779.31;7004614;28;20235;-81
2022/12/07 04:27:21;;;;;;;14.93;11.40;;;;;;;8.98;58.09;98794.38;7003884;28;20312;-81
2022/12/07 04:30:44;;;;;;;13.17;9.97;;;;;;;8.93;57.53;98803.03;7004283;28;20227;-79
2022/12/07 04:34:06;;;;;;;12.37;9.63;;;;;;;8.87;57.27;98785.00;7004722;28;20323;-79
2022/12/07 04:37:27;;;;;;;10.87;9.33;;;;;;;8.42;57.35;98745.09;7002811;28;20318;-79
2022/12/07 04:40:49;;;;;;;13.87;9.27;;;;;;;7.92;57.93;98699.56;7002479;28;20714;-79
2022/12/07 04:44:15;;;;;;;10.80;8.57;;;;;;;7.90;59.01;98723.06;7003875;28;20214;-79
2022/12/07 04:47:37;;;;;;;11.47;9.37;;;;;;;8.09;58.53;98746.63;7003087;28;20595;-79
2022/12/07 04:50:59;;;;;;;13.80;10.73;;;;;;;8.06;59.26;98754.19;7008149;28;20307;-79
2022/12/07 04:54:21;;;;;;;14.40;10.83;;;;;;;7.90;60.11;98755.25;7013083;28;20281;-79
2022/12/07 04:57:42;;;;;;;14.97;10.40;;;;;;;8.01;60.05;98757.47;7004910;28;20650;-79
2022/12/07 05:01:04;;;;;;;13.57;10.43;;;;;;;8.17;59.37;98761.75;7002527;28;20341;-79
2022/12/07 05:04:27;;;;;;;15.17;10.83;;;;;;;8.05;59.56;98753.38;7002532;28;20267;-79
2022/12/07 05:07:48;;;;;;;11.43;9.03;;;;;;;8.16;59.10;98752.88;7001957;28;20347;-79
2022/12/07 05:11:37;;;;;;;12.93;10.17;;;;;;;8.19;59.33;98754.34;7003493;28;20307;-80
2022/12/07 05:14:53;;;;;;;15.47;11.13;;;;;;;8.07;58.65;98731.72;7002693;28;20229;-79
2022/12/07 05:18:14;;;;;;;14.90;10.93;;;;;;;7.88;59.81;98764.53;7007151;28;20243;-80
2022/12/07 05:21:37;;;;;;;13.83;11.17;;;;;;;7.26;61.02;98740.00;7009701;28;20229;-79
2022/12/07 05:24:59;;;;;;;14.47;9.90;;;;;;;7.55;60.46;98774.84;7001208;28;20265;-79
2022/12/07 05:28:20;;;;;;;12.97;10.37;;;;;;;7.91;60.03;98764.16;7001827;28;20293;-79
2022/12/07 05:31:42;;;;;;;14.53;10.57;;;;;;;8.36;58.64;98775.41;7002050;28;20354;-79
2022/12/07 05:35:04;;;;;;;14.30;10.73;;;;;;;8.67;57.84;98757.09;7002036;28;20313;-79
2022/12/07 05:38:27;;;;;;;13.37;10.57;;;;;;;8.74;56.49;98749.94;6981180;28;20310;-79
2022/12/07 05:45:29;;;;;;;14.13;10.93;;;;;;;8.07;57.96;98772.81;6974790;28;20244;-79
2022/12/07 05:48:50;;;;;;;16.77;11.70;;;;;;;8.07;58.01;98758.56;6974914;28;20305;-82
2022/12/07 05:52:12;;;;;;;17.03;11.57;;;;;;;7.46;60.00;98796.59;6974711;28;20225;-82
2022/12/07 05:55:35;;;;;;;15.87;11.43;;;;;;;7.47;61.27;98801.78;6973055;28;20265;-79
2022/12/07 06:02:35;;;;;;;16.50;11.77;;;;;;;7.90;59.56;98795.53;6973996;28;20277;-79
2022/12/07 06:05:57;;;;;;;16.17;11.43;;;;;;;7.91;59.56;98769.53;6973930;28;20748;-79
2022/12/07 06:09:19;;;;;;;15.67;11.97;;;;;;;8.54;57.48;98783.03;6978469;28;20257;-80
2022/12/07 06:12:43;;;;;;;14.77;10.97;;;;;;;8.25;57.42;98754.44;6979691;28;20433;-80
2022/12/07 06:16:05;;;;;;;14.93;10.83;;;;;;;8.09;57.40;98794.94;6979119;28;20227;-81
2022/12/07 06:19:26;;;;;;;16.17;11.80;;;;;;;7.62;58.22;98757.03;6979274;28;20275;-81
2022/12/07 06:22:48;;;;;;;15.87;11.67;;;;;;;8.01;57.93;98776.25;6979663;28;20231;-80
2022/12/07 06:26:09;;;;;;;19.60;12.77;;;;;;;8.38;57.54;98792.16;6978480;28;20281;-81
2022/12/07 06:29:32;;;;;;;14.67;10.63;;;;;;;7.92;59.07;98800.72;6978949;28;20274;-80
2022/12/07 06:32:54;;;;;;;20.33;12.03;;;;;;;8.19;58.57;98795.44;6978498;28;20342;-81
2022/12/07 06:36:15;;;;;;;18.03;11.97;;;;;;;8.46;57.35;98799.28;6977326;28;20760;-80
2022/12/07 06:43:13;;;;;;;16.80;10.97;;;;;;;7.79;58.15;98769.16;6976597;28;20206;-80
2022/12/07 06:46:36;;;;;;;17.13;11.13;;;;;;;8.00;58.29;98784.50;6977895;28;20614;-79
2022/12/07 06:49:58;;;;;;;17.67;12.83;;;;;;;7.30;59.53;98757.41;6979110;28;20222;-79
2022/12/07 06:53:20;;;;;;;38.10;24.60;;;;;;;7.13;60.98;98739.84;6978410;28;20212;-79
2022/12/07 06:56:42;;;;;;;18.60;13.83;;;;;;;8.02;59.32;98791.34;6978168;28;20598;-79
2022/12/07 07:00:04;;;;;;;20.43;13.23;;;;;;;8.16;59.07;98803.91;6979416;28;20261;-80
2022/12/07 07:03:27;;;;;;;17.00;11.13;;;;;;;7.98;58.13;98751.66;6979759;28;20222;-78
2022/12/07 07:06:49;;;;;;;16.67;11.33;;;;;;;8.31;58.10;98811.94;6979314;28;20214;-81
2022/12/07 07:10:11;;;;;;;17.57;11.57;;;;;;;8.04;57.29;98743.66;6978784;28;20595;-79
2022/12/07 07:13:33;;;;;;;15.83;11.33;;;;;;;7.73;57.74;98745.78;6979337;28;20218;-79
2022/12/07 07:16:55;;;;;;;17.50;11.97;;;;;;;7.54;58.94;98818.00;6977530;28;20683;-79
2022/12/07 07:20:18;;;;;;;19.83;13.27;;;;;;;7.66;59.24;98800.41;6977665;28;20247;-81
2022/12/07 07:23:39;;;;;;;20.73;13.13;;;;;;;7.84;60.99;98812.38;6978923;28;20690;-79
2022/12/07 07:27:01;;;;;;;21.33;13.57;;;;;;;8.23;60.95;98817.41;6976466;28;20249;-78
2022/12/07 07:30:24;;;;;;;17.97;12.73;;;;;;;8.38;58.77;98815.53;6984268;28;20572;-85
2022/12/07 07:34:02;;;;;;;17.33;11.80;;;;;;;8.22;58.11;98811.22;6985292;28;20291;-83
2022/12/07 07:37:26;;;;;;;16.40;11.50;;;;;;;8.30;58.72;98823.72;6987520;28;20244;-79
2022/12/07 07:40:51;;;;;;;18.83;11.73;;;;;;;8.35;58.14;98829.31;7003740;28;20364;-77
2022/12/07 07:44:12;;;;;;;17.60;12.03;;;;;;;8.22;57.98;98789.75;7003379;28;20314;-78
2022/12/07 07:47:34;;;;;;;19.23;12.13;;;;;;;8.22;58.83;98829.19;6992326;28;20317;-80
2022/12/07 07:50:55;;;;;;;19.87;12.30;;;;;;;8.49;58.45;98820.41;7002082;28;20204;-79
2022/12/07 07:54:18;;;;;;;16.17;10.80;;;;;;;8.31;57.89;98817.31;6986283;28;20218;-79
2022/12/07 07:57:41;;;;;;;16.27;12.37;;;;;;;8.57;57.92;98826.47;6976178;28;20666;-78
2022/12/07 08:01:05;;;;;;;21.30;12.77;;;;;;;8.42;58.18;98838.31;6981951;28;20206;-80
2022/12/07 08:04:26;;;;;;;17.53;11.73;;;;;;;8.71;57.70;98830.13;7005962;28;20203;-80
2022/12/07 08:07:48;;;;;;;19.87;12.30;;;;;;;8.69;57.71;98818.72;7005011;28;20231;-80
2022/12/07 08:11:11;;;;;;;18.17;12.77;;;;;;;8.38;58.03;98828.97;7005284;28;20206;-80
2022/12/07 08:14:33;;;;;;;18.00;12.07;;;;;;;8.09;58.67;98807.53;7006725;28;20264;-81
2022/12/07 08:17:55;;;;;;;14.93;11.00;;;;;;;8.46;58.02;98844.94;7005027;28;20691;-80
2022/12/07 08:21:17;;;;;;;14.90;10.50;;;;;;;8.30;57.93;98840.66;7006787;28;20207;-80
2022/12/07 08:24:38;;;;;;;17.23;12.40;;;;;;;8.46;58.43;98839.56;7006760;28;20214;-79
2022/12/07 08:28:01;;;;;;;14.43;10.23;;;;;;;8.56;57.84;98840.94;7004253;28;20743;-79
2022/12/07 08:31:23;;;;;;;13.30;10.20;;;;;;;9.01;56.78;98832.44;7006882;28;20233;-79
2022/12/07 08:34:44;;;;;;;13.23;10.07;;;;;;;9.15;56.34;98832.38;7007084;28;20262;-79
2022/12/07 08:38:06;;;;;;;12.67;10.13;;;;;;;9.33;55.46;98826.50;7000190;28;20234;-80
2022/12/07 08:41:27;;;;;;;14.93;9.97;;;;;;;9.29;55.29;98836.84;6993399;28;20254;-80
2022/12/07 08:44:50;;;;;;;13.47;9.70;;;;;;;9.39;55.66;98841.88;7006366;28;20291;-80
2022/12/07 08:48:17;;;;;;;11.73;8.87;;;;;;;9.41;55.17;98812.88;7009298;28;20232;-80
2022/12/07 08:51:39;;;;;;;15.60;11.03;;;;;;;9.68;54.64;98841.63;7008832;28;20194;-80
2022/12/07 08:55:01;;;;;;;14.40;10.00;;;;;;;9.09;55.10;98843.09;7009302;28;20264;-80
2022/12/07 08:58:23;;;;;;;13.10;9.07;;;;;;;9.17;53.85;98843.75;6981221;28;20311;-80
2022/12/07 09:01:46;;;;;;;12.73;9.17;;;;;;;9.41;53.78;98826.34;6976661;28;20297;-80
2022/12/07 09:05:09;;;;;;;12.43;8.73;;;;;;;9.52;52.63;98820.41;6975466;28;20205;-79
2022/12/07 09:08:35;;;;;;;10.83;8.30;;;;;;;9.76;52.24;98830.69;6976440;28;20234;-80
2022/12/07 09:11:57;;;;;;;12.07;8.90;;;;;;;10.09;52.09;98826.34;6977040;28;20445;-80
2022/12/07 09:15:19;;;;;;;10.53;8.60;;;;;;;10.09;51.87;98832.53;6976785;28;20258;-80
2022/12/07 09:18:41;;;;;;;13.43;8.60;;;;;;;9.82;51.57;98827.19;6976745;28;20322;-80
2022/12/07 09:22:04;;;;;;;10.47;8.30;;;;;;;9.94;51.35;98782.50;6976843;28;20205;-81
2022/12/07 09:25:26;;;;;;;10.27;8.10;;;;;;;10.43;50.14;98818.13;6976150;28;20213;-80
2022/12/07 09:28:47;;;;;;;10.07;8.30;;;;;;;10.46;50.31;98805.06;6977836;28;20233;-80
2022/12/07 09:32:09;;;;;;;13.83;7.77;;;;;;;10.49;49.83;98811.91;6977974;28;20203;-80
2022/12/07 09:35:32;;;;;;;9.20;7.00;;;;;;;10.43;48.59;98829.75;6976032;28;20233;-80
2022/12/07 09:38:53;;;;;;;9.20;7.17;;;;;;;10.72;48.46;98826.69;6975067;28;20234;-80
2022/12/07 09:42:27;;;;;;;9.23;7.17;;;;;;;10.78;47.67;98814.25;6979618;28;20235;-81
2022/12/07 09:45:51;;;;;;;8.93;6.87;;;;;;;10.89;47.53;98832.50;6981381;28;20221;-79
2022/12/07 09:49:15;;;;;;;8.80;7.33;;;;;;;10.82;47.27;98827.13;6980588;28;20233;-80
2022/12/07 09:52:37;;;;;;;7.73;6.67;;;;;;;10.52;47.96;98819.59;6981139;28;20240;-79
2022/12/07 09:56:00;;;;;;;7.13;6.40;;;;;;;10.14;48.27;98819.28;6982538;28;20308;-80
2022/12/07 09:59:22;;;;;;;7.00;6.30;;;;;;;10.15;49.08;98814.75;6982426;28;20271;-80
2022/12/07 10:02:44;;;;;;;7.90;6.87;;;;;;;10.37;47.93;98798.22;6981923;28;20687;-80
2022/12/07 10:06:06;;;;;;;8.53;6.23;;;;;;;10.64;47.66;98796.41;7007457;28;20655;-80
2022/12/07 10:09:34;;;;;;;7.63;6.07;;;;;;;10.85;47.16;98805.13;7008817;28;20245;-80
2022/12/07 10:12:59;;;;;;;7.70;6.57;;;;;;;10.63;47.12;98755.13;7008888;28;20643;-80
2022/12/07 10:16:36;;;;;;;11.83;6.40;;;;;;;10.35;47.74;98788.69;7008402;28;20223;-80
2022/12/07 10:20:13;;;;;;;7.73;6.30;;;;;;;10.61;47.89;98780.63;7008091;28;20253;-80
2022/12/07 10:23:36;;;;;;;7.47;6.63;;;;;;;11.03;48.04;98783.75;6985722;28;20301;-80
2022/12/07 10:26:59;;;;;;;7.97;6.40;;;;;;;11.08;46.75;98788.53;6979747;28;20730;-80
2022/12/07 10:30:21;;;;;;;6.93;6.20;;;;;;;10.95;46.81;98789.38;6980219;28;20289;-80
2022/12/07 10:33:50;;;;;;;7.30;5.83;;;;;;;10.82;47.73;98783.13;6981171;28;20575;-80
2022/12/07 10:37:17;;;;;;;8.37;5.97;;;;;;;10.93;46.50;98786.03;6980090;28;20309;-80
2022/12/07 10:40:39;;;;;;;8.03;6.93;;;;;;;10.78;47.68;98779.19;6983676;28;20209;-80
2022/12/07 10:44:02;;;;;;;8.83;5.97;;;;;;;10.81;47.23;98785.00;6981163;28;20201;-80
2022/12/07 10:47:34;;;;;;;7.70;6.40;;;;;;;10.72;47.49;98780.84;6980290;28;20692;-80
2022/12/07 10:51:04;;;;;;;7.93;6.87;;;;;;;10.58;48.19;98771.06;6980547;28;20198;-80
2022/12/07 10:54:33;;;;;;;7.87;6.43;;;;;;;10.56;47.86;98775.84;6980387;28;20668;-81
2022/12/07 10:58:09;;;;;;;7.70;5.93;;;;;;;10.55;47.36;98768.81;6979252;28;20259;-81
2022/12/07 11:01:34;;;;;;;6.33;5.73;;;;;;;10.36;47.43;98739.13;6981226;28;20223;-80
2022/12/07 11:05:02;;;;;;;13.07;6.97;;;;;;;10.52;47.96;98747.63;6984500;28;20271;-80
2022/12/07 11:08:39;;;;;;;15.17;12.37;;;;;;;10.81;47.79;98758.03;6981075;28;20222;-80
2022/12/07 11:12:04;;;;;;;9.23;6.90;;;;;;;10.79;47.61;98754.72;6982993;28;20547;-80
2022/12/07 11:15:30;;;;;;;25.37;19.77;;;;;;;10.95;47.27;98746.22;6989798;28;20234;-80
2022/12/07 11:19:00;;;;;;;10.73;9.70;;;;;;;10.55;47.51;98735.63;6992228;28;20233;-80
2022/12/07 11:22:31;;;;;;;9.17;8.23;;;;;;;10.54;48.44;98750.97;6984377;28;20266;-79
2022/12/07 11:25:56;;;;;;;8.63;6.10;;;;;;;10.57;48.30;98725.47;6980491;28;20223;-80
2022/12/07 11:29:36;;;;;;;9.30;7.00;;;;;;;10.97;47.49;98743.28;6980744;28;20227;-79
2022/12/07 11:33:17;;;;;;;19.37;11.43;;;;;;;11.03;47.22;98727.09;6981162;28;20243;-80
2022/12/07 11:36:41;;;;;;;56.43;44.13;;;;;;;10.83;47.81;98709.28;6979947;28;20705;-80
2022/12/07 11:40:06;;;;;;;17.67;13.80;;;;;;;11.12;47.67;98733.09;6978941;28;20703;-80
2022/12/07 11:43:29;;;;;;;9.77;8.27;;;;;;;11.00;47.17;98722.13;6987829;28;20240;-81
2022/12/07 11:46:54;;;;;;;13.00;6.37;;;;;;;10.77;46.94;98721.75;6994315;28;20206;-80
2022/12/07 11:50:25;;;;;;;8.87;7.07;;;;;;;10.71;47.38;98719.03;6994501;28;20250;-80
2022/12/07 11:53:52;;;;;;;11.10;6.00;;;;;;;10.82;46.99;98716.56;6994657;28;20222;-80
2022/12/07 11:57:20;;;;;;;10.13;6.10;;;;;;;10.76;47.96;98703.91;6992499;28;20233;-80
2022/12/07 12:00:42;;;;;;;7.63;6.07;;;;;;;10.87;47.88;98694.34;6994841;28;20209;-80
2022/12/07 12:04:14;;;;;;;8.70;5.67;;;;;;;10.90;47.61;98705.53;6994208;28;20222;-80
2022/12/07 12:07:37;;;;;;;7.27;5.50;;;;;;;10.37;49.93;98703.91;6991586;28;20284;-80
2022/12/07 12:11:07;;;;;;;5.63;4.43;;;;;;;9.89;52.38;98702.34;6980209;28;20362;-80
2022/12/07 12:14:43;;;;;;;7.67;6.00;;;;;;;10.05;51.99;98710.06;6978843;28;20616;-80
2022/12/07 12:18:20;;;;;;;8.13;6.50;;;;;;;10.18;52.41;98695.78;6977287;28;20273;-80
2022/12/07 12:21:42;;;;;;;7.00;5.53;;;;;;;10.56;51.43;98699.56;6978018;28;20210;-79
2022/12/07 12:25:06;;;;;;;8.30;6.43;;;;;;;9.91;52.85;98697.56;6977384;28;20216;-80
2022/12/07 12:28:39;;;;;;;11.20;10.10;;;;;;;9.70;53.40;98694.19;6977494;28;20253;-80
2022/12/07 12:32:14;;;;;;;9.50;7.03;;;;;;;9.77;52.93;98697.72;6977422;28;20229;-80
2022/12/07 12:35:36;;;;;;;11.40;7.47;;;;;;;9.87;52.48;98700.88;6976698;28;20213;-80
2022/12/07 12:39:13;;;;;;;12.60;7.20;;;;;;;9.73;53.11;98691.94;6976254;28;20231;-80
2022/12/07 12:42:44;;;;;;;9.83;7.30;;;;;;;9.56;53.28;98669.09;6977903;28;20244;-80
2022/12/07 12:46:49;;;;;;;10.00;7.83;;;;;;;9.69;53.15;98698.75;6976673;28;20208;-80
2022/12/07 12:50:24;;;;;;;21.43;16.30;;;;;;;10.04;52.95;98691.44;6976359;28;20228;-80
2022/12/07 12:53:47;;;;;;;9.67;7.30;;;;;;;9.91;53.21;98681.41;6976717;28;20290;-82
2022/12/07 12:57:12;;;;;;;9.13;8.23;;;;;;;10.16;52.68;98690.59;6994237;28;20209;-80
2022/12/07 13:00:34;;;;;;;11.93;8.87;;;;;;;10.23;52.11;98685.22;7002274;28;20197;-80
2022/12/07 13:03:56;;;;;;;10.23;8.00;;;;;;;10.23;52.20;98632.19;6976464;28;20217;-80
2022/12/07 13:07:55;;;;;;;10.50;8.17;;;;;;;10.41;52.54;98667.44;6977663;28;20203;-81
2022/12/07 13:11:18;;;;;;;12.03;8.23;;;;;;;9.93;53.00;98670.44;6981717;28;20201;-79
2022/12/07 13:14:58;;;;;;;10.30;8.47;;;;;;;9.97;52.46;98660.91;6976699;28;20213;-81
2022/12/07 13:18:24;;;;;;;10.40;7.87;;;;;;;10.02;52.71;98658.44;6981853;28;20259;-79
2022/12/07 13:21:46;;;;;;;10.80;8.63;;;;;;;10.50;52.37;98655.38;6982296;28;20238;-78
2022/12/07 13:25:12;;;;;;;11.77;9.23;;;;;;;10.01;52.74;98657.63;6980660;28;20295;-80
2022/12/07 13:28:38;;;;;;;9.00;7.73;;;;;;;10.01;52.35;98648.69;6981456;28;20236;-80
2022/12/07 13:32:00;;;;;;;11.77;8.33;;;;;;;10.04;51.81;98656.41;6980673;28;20554;-77
2022/12/07 13:35:33;;;;;;;11.50;9.27;;;;;;;10.51;52.74;98648.94;6979023;28;20717;-78
2022/12/07 13:38:57;;;;;;;9.07;7.60;;;;;;;10.70;52.27;98661.56;6978281;28;20376;-75
2022/12/07 13:42:25;;;;;;;13.77;8.37;;;;;;;10.72;52.01;98656.81;6978990;28;20243;-76
2022/12/07 13:45:57;;;;;;;12.67;8.33;;;;;;;10.81;51.52;98635.84;6982081;28;20206;-76
2022/12/07 13:49:22;;;;;;;9.90;8.30;;;;;;;11.03;51.45;98635.38;6977237;28;20317;-79
2022/12/07 13:52:44;;;;;;;10.70;7.77;;;;;;;11.22;50.83;98647.97;6978146;28;20203;-79
2022/12/07 13:56:14;;;;;;;11.77;8.70;;;;;;;10.69;50.14;98657.22;6978573;28;20261;-77
2022/12/07 13:59:38;;;;;;;8.87;7.90;;;;;;;10.38;50.94;98651.66;6978398;28;20253;-77
2022/12/07 14:03:01;;;;;;;12.63;7.67;;;;;;;10.58;51.31;98648.97;6992090;28;20685;-78
2022/12/07 14:06:32;;;;;;;9.47;8.17;;;;;;;10.21;51.34;98649.59;7005445;28;20235;-77
2022/12/07 14:09:59;;;;;;;12.03;7.77;;;;;;;10.29;51.81;98652.91;7006555;28;20239;-77
2022/12/07 14:13:30;;;;;;;13.67;8.60;;;;;;;10.47;51.12;98610.00;7006122;28;20210;-78
2022/12/07 14:17:02;;;;;;;13.10;9.87;;;;;;;10.25;51.63;98626.56;7004995;28;20611;-77
2022/12/07 14:20:31;;;;;;;10.43;8.33;;;;;;;10.33;51.34;98639.84;7005893;28;20699;-77
2022/12/07 14:24:26;;;;;;;9.67;7.73;;;;;;;10.24;52.25;98649.16;7005315;28;20590;-77
2022/12/07 14:27:57;;;;;;;51.20;16.57;;;;;;;10.39;51.82;98633.63;6863766;28;20225;-77
2022/12/07 14:31:22;;;;;;;18.43;15.63;;;;;;;10.65;51.61;98645.22;6890961;28;20307;-78
2022/12/07 14:34:58;;;;;;;12.53;10.67;;;;;;;10.18;52.16;98637.38;6999233;28;20222;-77
2022/12/07 14:38:20;;;;;;;12.30;9.70;;;;;;;10.18;52.51;98623.06;6977395;28;20303;-78
2022/12/07 14:41:53;;;;;;;15.93;12.13;;;;;;;10.05;52.10;98634.63;6976871;28;20240;-77
2022/12/07 14:45:17;;;;;;;11.57;8.00;;;;;;;10.10;52.15;98631.34;6977148;28;20554;-78
2022/12/07 14:48:39;;;;;;;8.73;7.70;;;;;;;10.33;52.11;98631.78;6977811;28;20231;-78
2022/12/07 14:52:02;;;;;;;12.20;8.40;;;;;;;10.40;51.55;98638.78;6991860;28;20208;-78
2022/12/07 14:55:26;;;;;;;11.07;8.80;;;;;;;10.22;51.50;98625.13;7004446;28;20289;-78
2022/12/07 14:58:48;;;;;;;14.43;8.77;;;;;;;9.92;52.86;98639.16;7005386;28;20759;-78
2022/12/07 15:02:12;;;;;;;10.93;8.80;;;;;;;10.18;53.02;98641.91;7005199;28;20205;-77
2022/12/07 15:05:34;;;;;;;13.50;9.47;;;;;;;9.77;53.32;98606.19;7004550;28;20223;-78
2022/12/07 15:08:57;;;;;;;14.00;10.23;;;;;;;9.59;53.41;98633.72;6990391;28;20299;-78
2022/12/07 15:12:19;;;;;;;13.00;9.33;;;;;;;9.27;54.88;98630.91;6977071;28;20339;-78
2022/12/07 15:15:40;;;;;;;12.80;10.43;;;;;;;9.36;54.75;98643.13;6976322;28;20248;-78
2022/12/07 15:19:02;;;;;;;14.93;10.13;;;;;;;9.42;54.65;98647.72;6977151;28;20666;-78
2022/12/07 15:22:23;;;;;;;15.33;10.80;;;;;;;9.87;53.57;98612.03;6978043;28;20209;-78
2022/12/07 15:25:48;;;;;;;15.57;11.03;;;;;;;9.64;54.35;98643.84;6977867;28;20212;-78
2022/12/07 15:29:11;;;;;;;13.33;10.30;;;;;;;9.88;53.43;98644.13;6978271;28;20246;-77
2022/12/07 15:32:32;;;;;;;13.77;10.93;;;;;;;9.88;53.83;98648.69;6976512;28;20239;-78
2022/12/07 15:35:54;;;;;;;16.40;11.80;;;;;;;9.90;54.09;98638.53;6976431;28;20216;-77
2022/12/07 15:39:15;;;;;;;14.67;11.80;;;;;;;9.64;54.25;98639.28;6974619;28;20268;-78
2022/12/07 15:42:38;;;;;;;14.17;10.30;;;;;;;9.89;53.78;98639.56;6975022;28;20232;-78
2022/12/07 15:46:03;;;;;;;17.37;11.23;;;;;;;9.59;54.75;98632.88;6976228;28;20206;-79
2022/12/07 15:49:24;;;;;;;18.13;12.07;;;;;;;9.74;54.54;98622.78;6978395;28;20714;-83
2022/12/07 15:52:46;;;;;;;15.63;11.73;;;;;;;9.79;54.06;98642.66;6979762;28;20236;-81
2022/12/07 15:56:08;;;;;;;14.53;10.50;;;;;;;9.44;54.34;98634.88;6978527;28;20246;-79
2022/12/07 15:59:31;;;;;;;13.03;10.13;;;;;;;9.55;54.88;98637.00;6980116;28;20238;-81
2022/12/07 16:02:53;;;;;;;14.30;9.57;;;;;;;9.43;53.93;98635.91;6979057;28;20205;-78
2022/12/07 16:06:16;;;;;;;23.83;16.33;;;;;;;9.37;53.94;98596.38;6978865;28;20228;-83
2022/12/07 16:09:38;;;;;;;16.53;11.40;;;;;;;9.53;54.13;98639.06;6982817;28;20225;-84